createdAt,value
2022-10-08T00:03:22.129Z,61.88
2022-10-08T00:08:24.912Z,62.23
2022-10-08T00:13:29.801Z,62.26
2022-10-08T00:18:33.708Z,62.41
2022-10-08T00:23:36.698Z,62.36
2022-10-08T00:28:42.982Z,62.67
2022-10-08T00:33:50.205Z,62.76
2022-10-08T00:38:56.608Z,62.88
2022-10-08T00:44:03.090Z,62.84
2022-10-08T00:49:16.031Z,62.84
2022-10-08T00:54:21.838Z,63.20
2022-10-08T00:59:26.252Z,63.14
2022-10-08T01:04:30.661Z,63.32
2022-10-08T01:09:37.975Z,63.70
2022-10-08T01:14:49.183Z,63.71
2022-10-08T01:20:21.801Z,64.03
2022-10-08T01:25:37.569Z,64.01
2022-10-08T01:30:50.983Z,64.26
2022-10-08T01:35:57.405Z,64.31
2022-10-08T01:41:05.791Z,64.60
2022-10-08T01:46:15.447Z,64.79
2022-10-08T01:51:22.194Z,65.04
2022-10-08T01:56:28.547Z,65.25
2022-10-08T02:01:38.534Z,65.50
2022-10-08T02:06:49.534Z,65.60
2022-10-08T02:11:52.252Z,65.65
2022-10-08T02:17:03.393Z,65.95
2022-10-08T02:22:07.148Z,66.06
2022-10-08T02:27:12.696Z,66.08
2022-10-08T02:32:23.013Z,66.28
2022-10-08T02:37:32.547Z,66.44
2022-10-08T02:42:39.125Z,66.61
2022-10-08T02:47:47.604Z,66.81
2022-10-08T02:52:52.556Z,66.75
2022-10-08T02:58:00.458Z,67.00
2022-10-08T03:03:12.363Z,67.17
2022-10-08T03:08:17.065Z,67.13
2022-10-08T03:13:21.001Z,67.22
2022-10-08T03:18:26.264Z,67.37
2022-10-08T03:23:29.497Z,67.44
2022-10-08T03:28:32.163Z,67.49
2022-10-08T03:33:36.100Z,67.69
2022-10-08T03:38:38.682Z,67.78
2022-10-08T03:43:41.498Z,67.69
2022-10-08T03:48:49.556Z,67.90
2022-10-08T03:53:52.259Z,68.02
2022-10-08T03:58:56.197Z,68.09
2022-10-08T04:04:00.162Z,68.20
2022-10-08T04:09:02.781Z,68.21
2022-10-08T04:14:05.523Z,68.15
2022-10-08T04:19:11.729Z,68.35
2022-10-08T04:24:14.484Z,68.40
2022-10-08T04:29:17.151Z,68.31
2022-10-08T04:34:21.072Z,68.45
2022-10-08T04:39:23.645Z,68.65
2022-10-08T04:44:26.382Z,68.57
2022-10-08T04:49:30.356Z,68.79
2022-10-08T04:54:32.934Z,68.71
2022-10-08T04:59:35.541Z,68.76
2022-10-08T05:04:39.452Z,69.20
2022-10-08T05:09:42.233Z,69.11
2022-10-08T05:14:44.791Z,69.14
2022-10-08T05:19:48.913Z,69.35
2022-10-08T05:24:51.618Z,69.38
2022-10-08T05:29:54.270Z,69.33
2022-10-08T05:34:58.228Z,69.46
2022-10-08T05:40:00.822Z,69.59
2022-10-08T05:45:03.414Z,69.55
2022-10-08T05:50:08.455Z,69.66
2022-10-08T05:55:11.188Z,69.65
2022-10-08T06:00:15.568Z,69.66
2022-10-08T06:05:19.540Z,69.81
2022-10-08T06:10:22.125Z,69.70
2022-10-08T06:15:24.820Z,69.91
2022-10-08T06:20:31.999Z,69.89
2022-10-08T06:25:37.859Z,69.96
2022-10-08T06:30:41.381Z,70.08
2022-10-08T06:35:45.297Z,70.00
2022-10-08T06:40:48.014Z,70.15
2022-10-08T06:45:50.818Z,70.24
2022-10-08T06:51:00.663Z,70.06
2022-10-08T06:56:07.976Z,70.18
2022-10-08T07:01:13.319Z,70.27
2022-10-08T07:06:17.509Z,70.39
2022-10-08T07:11:20.793Z,70.52
2022-10-08T07:16:25.032Z,70.36
2022-10-08T07:21:30.579Z,70.16
2022-10-08T07:26:35.244Z,69.90
2022-10-08T07:31:39.099Z,69.78
2022-10-08T07:36:43.127Z,69.54
2022-10-08T07:41:46.570Z,64.41
2022-10-08T07:46:51.632Z,62.07
2022-10-08T07:51:55.625Z,61.73
2022-10-08T07:56:58.184Z,63.37
2022-10-08T08:02:00.829Z,63.70
2022-10-08T08:07:04.808Z,63.98
2022-10-08T08:12:07.438Z,64.15
2022-10-08T08:17:10.731Z,64.47
2022-10-08T08:22:14.862Z,64.87
2022-10-08T08:27:17.954Z,64.94
2022-10-08T08:32:24.936Z,65.27
2022-10-08T08:37:32.246Z,65.28
2022-10-08T08:42:51.006Z,65.51
2022-10-08T08:48:05.473Z,65.56
2022-10-08T08:53:11.703Z,65.79
2022-10-08T08:58:22.978Z,65.85
2022-10-08T09:03:29.936Z,65.90
2022-10-08T09:08:38.302Z,65.89
2022-10-08T09:13:44.806Z,66.00
2022-10-08T09:18:49.846Z,66.08
2022-10-08T09:23:53.863Z,66.02
2022-10-08T09:28:58.146Z,66.40
2022-10-08T09:34:05.665Z,66.33
2022-10-08T09:39:19.208Z,66.16
2022-10-08T09:44:23.734Z,66.13
2022-10-08T09:49:30.906Z,66.34
2022-10-08T09:54:38.279Z,66.60
2022-10-08T09:59:51.502Z,66.82
2022-10-08T10:04:56.328Z,67.10
2022-10-08T10:10:03.087Z,66.77
2022-10-08T10:15:12.801Z,66.61
2022-10-08T10:20:21.769Z,66.97
2022-10-08T10:25:33.989Z,66.71
2022-10-08T10:30:48.651Z,66.66
2022-10-08T10:35:55.235Z,66.42
2022-10-08T10:41:14.787Z,66.30
2022-10-08T10:46:28.870Z,65.84
2022-10-08T10:51:53.341Z,66.45
2022-10-08T10:57:05.748Z,66.74
2022-10-08T11:02:20.598Z,66.81
2022-10-08T11:07:41.665Z,65.87
2022-10-08T11:12:54.914Z,65.64
2022-10-08T11:18:16.777Z,65.74
2022-10-08T11:23:41.376Z,65.38
2022-10-08T11:28:55.341Z,65.36
2022-10-08T11:33:59.198Z,65.74
2022-10-08T11:39:13.227Z,65.82
2022-10-08T11:44:18.362Z,65.59
2022-10-08T11:49:50.718Z,65.51
2022-10-08T11:54:55.947Z,65.35
2022-10-08T12:00:07.975Z,65.29
2022-10-08T12:05:20.634Z,65.11
2022-10-08T12:10:30.983Z,64.78
2022-10-08T12:15:58.475Z,64.75
2022-10-08T12:21:36.293Z,64.31
2022-10-08T12:27:19.506Z,64.18
2022-10-08T12:32:24.252Z,63.93
2022-10-08T12:37:46.244Z,63.67
2022-10-08T12:42:53.420Z,63.58
2022-10-08T12:48:05.844Z,63.63
2022-10-08T12:53:13.252Z,63.78
2022-10-08T12:58:19.957Z,63.83
2022-10-08T13:03:25.367Z,64.01
2022-10-08T13:08:31.588Z,64.25
2022-10-08T13:13:48.952Z,64.53
2022-10-08T13:18:54.848Z,64.94
2022-10-08T13:23:58.115Z,64.96
2022-10-08T13:29:32.040Z,65.09
2022-10-08T13:34:42.536Z,64.96
2022-10-08T13:39:52.521Z,64.90
2022-10-08T13:44:55.534Z,64.97
2022-10-08T13:50:02.034Z,64.74
2022-10-08T13:55:07.594Z,64.73
2022-10-08T14:00:14.260Z,65.25
2022-10-08T14:05:18.161Z,65.26
2022-10-08T14:10:21.183Z,65.43
2022-10-08T14:15:24.416Z,65.43
2022-10-08T14:20:29.629Z,65.97
2022-10-08T14:25:32.766Z,65.95
2022-10-08T14:30:35.330Z,65.64
2022-10-08T14:35:39.498Z,63.82
2022-10-08T14:40:42.201Z,62.52
2022-10-08T14:45:44.802Z,64.19
2022-10-08T14:50:48.811Z,63.98
2022-10-08T14:56:10.981Z,62.94
2022-10-08T15:01:14.199Z,62.75
2022-10-08T15:06:18.364Z,63.74
2022-10-08T15:11:21.007Z,62.82
2022-10-08T15:16:23.742Z,61.92
2022-10-08T15:21:27.793Z,61.61
2022-10-08T15:26:30.543Z,61.91
2022-10-08T15:31:33.219Z,62.43
2022-10-08T15:36:37.948Z,62.86
2022-10-08T15:41:42.570Z,59.39
2022-10-08T15:46:45.372Z,61.63
2022-10-08T15:51:49.368Z,62.30
2022-10-08T15:56:52.025Z,63.13
2022-10-08T16:01:54.667Z,62.92
2022-10-08T16:06:58.666Z,62.82
2022-10-08T16:12:01.299Z,62.88
2022-10-08T16:17:04.005Z,63.09
2022-10-08T16:22:08.732Z,63.22
2022-10-08T16:27:11.365Z,63.25
2022-10-08T16:32:14.221Z,63.41
2022-10-08T16:37:18.686Z,63.42
2022-10-08T16:42:21.315Z,63.49
2022-10-08T16:47:23.914Z,63.74
2022-10-08T16:52:27.978Z,63.89
2022-10-08T16:57:32.570Z,63.87
2022-10-08T17:02:35.302Z,63.97
2022-10-08T17:07:39.299Z,63.83
2022-10-08T17:12:42.343Z,63.96
2022-10-08T17:17:44.945Z,63.77
2022-10-08T17:22:49.178Z,63.83
2022-10-08T17:27:52.211Z,63.69
2022-10-08T17:32:54.922Z,63.46
2022-10-08T17:37:58.893Z,63.48
2022-10-08T17:43:01.470Z,63.33
2022-10-08T17:48:04.182Z,63.27
2022-10-08T17:53:08.384Z,63.09
2022-10-08T17:58:10.939Z,62.87
2022-10-08T18:03:14.583Z,62.86
2022-10-08T18:08:19.100Z,62.36
2022-10-08T18:13:22.114Z,62.13
2022-10-08T18:18:24.776Z,61.90
2022-10-08T18:23:30.720Z,62.10
2022-10-08T18:28:33.451Z,61.97
2022-10-08T18:33:37.618Z,62.11
2022-10-08T18:38:42.479Z,62.26
2022-10-08T18:43:46.508Z,62.40
2022-10-08T18:48:50.044Z,62.42
2022-10-08T18:53:55.402Z,62.37
2022-10-08T18:58:58.715Z,62.24
2022-10-08T19:04:03.428Z,62.30
2022-10-08T19:09:07.966Z,62.46
2022-10-08T19:14:13.391Z,62.26
2022-10-08T19:19:18.007Z,62.06
2022-10-08T19:24:23.793Z,62.26
2022-10-08T19:29:29.018Z,62.23
2022-10-08T19:34:31.649Z,61.96
2022-10-08T19:39:36.414Z,62.20
2022-10-08T19:44:41.040Z,61.90
2022-10-08T19:49:43.740Z,62.06
2022-10-08T19:54:47.661Z,61.95
2022-10-08T19:59:50.313Z,62.19
2022-10-08T20:04:52.884Z,62.07
2022-10-08T20:09:56.918Z,61.98
2022-10-08T20:14:59.502Z,62.14
2022-10-08T20:20:20.962Z,61.66
2022-10-08T20:25:26.245Z,62.20
2022-10-08T20:30:28.853Z,62.78
2022-10-08T20:35:31.682Z,62.82
2022-10-08T20:40:35.712Z,62.54
2022-10-08T20:45:38.398Z,62.59
2022-10-08T20:50:41.068Z,62.89
2022-10-08T20:55:45.199Z,63.01
2022-10-08T21:00:47.978Z,63.02
2022-10-08T21:05:50.589Z,62.91
2022-10-08T21:10:54.519Z,63.05
2022-10-08T21:16:01.863Z,63.06
2022-10-08T21:21:05.527Z,62.75
2022-10-08T21:26:12.986Z,62.89
2022-10-08T21:31:16.956Z,62.98
2022-10-08T21:36:22.438Z,62.87
2022-10-08T21:41:28.868Z,62.72
2022-10-08T21:46:33.552Z,63.02
2022-10-08T21:51:36.560Z,62.80
2022-10-08T21:56:42.351Z,62.95
2022-10-08T22:01:46.690Z,63.06
2022-10-08T22:06:51.619Z,62.86
2022-10-08T22:11:57.410Z,62.95
2022-10-08T22:17:00.014Z,63.06
2022-10-08T22:22:02.854Z,62.95
2022-10-08T22:27:07.321Z,63.26
2022-10-08T22:32:09.900Z,62.79
2022-10-08T22:37:12.517Z,63.10
2022-10-08T22:42:16.544Z,62.80
2022-10-08T22:47:19.152Z,62.85
2022-10-08T22:52:21.759Z,62.93
2022-10-08T22:57:25.690Z,62.86
2022-10-08T23:02:28.867Z,62.91
2022-10-08T23:07:31.988Z,63.07
2022-10-08T23:12:35.955Z,63.05
2022-10-08T23:17:39.061Z,62.87
2022-10-08T23:22:41.772Z,62.99
2022-10-08T23:27:45.681Z,62.87
2022-10-08T23:32:48.512Z,62.75
2022-10-08T23:37:51.233Z,62.76
2022-10-08T23:42:55.320Z,62.74
2022-10-08T23:47:58.069Z,63.08
2022-10-08T23:53:00.648Z,62.88
2022-10-08T23:58:04.576Z,63.07
